Time;durP1;ratioP1;P1;durP2;ratioP2;P2;SDS_P1;SDS_P2;PMS_P1;PMS_P2;Temp;Humidity;BMP_temperature;BMP_pressure;BME280_temperature;BME280_humidity;BME280_pressure;Samples;Min_cycle;Max_cycle;Signal;HPM_P1;HPM_P2
2024/03/11 11:04:14;;;;;;;26.40;14.00;;;;;;;6.91;76.74;98564.00;103024;1287;649235;-77
2024/03/11 11:06:48;;;;;;;27.90;14.90;;;;;;;6.83;76.90;98564.31;104403;1270;94591;-77
2024/03/11 11:09:19;;;;;;;32.10;16.10;;;;;;;6.79;76.83;98561.41;104442;1269;94586;-76
2024/03/11 11:11:51;;;;;;;28.80;15.50;;;;;;;6.75;76.76;98564.46;104560;1271;106806;-76
2024/03/11 11:14:24;;;;;;;27.00;16.10;;;;;;;6.72;76.85;98560.80;104324;1270;95606;-77
2024/03/11 11:16:57;;;;;;;25.90;14.70;;;;;;;6.69;76.73;98566.10;104157;1271;1163320;-76
2024/03/11 11:19:34;;;;;;;27.30;14.80;;;;;;;6.66;76.88;98566.97;104849;1268;95193;-78
2024/03/11 11:22:07;;;;;;;29.40;16.10;;;;;;;6.65;76.91;98569.38;104746;1267;94312;-77
2024/03/11 11:24:42;;;;;;;26.30;14.20;;;;;;;6.62;76.84;98565.51;104803;1269;107562;-76
2024/03/11 11:27:13;;;;;;;30.20;15.70;;;;;;;6.59;76.95;98567.98;105414;1257;94295;-77
2024/03/11 11:29:46;;;;;;;24.80;13.80;;;;;;;6.56;76.93;98568.31;105385;1258;108320;-77
2024/03/11 11:32:18;;;;;;;27.50;14.50;;;;;;;6.57;77.03;98566.16;105381;1267;95243;-76
2024/03/11 11:34:56;;;;;;;26.80;15.00;;;;;;;6.58;77.07;98562.41;105355;1253;95257;-78
2024/03/11 11:37:30;;;;;;;28.40;16.30;;;;;;;6.58;76.93;98557.66;105319;1253;108239;-77
2024/03/11 11:40:31;;;;;;;30.70;14.70;;;;;;;6.60;77.12;98562.31;105369;1256;95359;-79
2024/03/11 11:43:00;;;;;;;31.20;14.70;;;;;;;6.62;77.06;98558.81;105360;1257;107237;-77
2024/03/11 11:45:54;;;;;;;24.70;13.90;;;;;;;6.65;77.28;98559.89;105300;1255;96076;-77
2024/03/11 11:48:26;;;;;;;26.40;15.40;;;;;;;6.66;77.27;98557.69;105189;1255;95298;-75
2024/03/11 11:50:58;;;;;;;32.50;16.00;;;;;;;6.66;77.15;98559.08;105371;1256;108440;-78
2024/03/11 11:53:32;;;;;;;27.00;14.80;;;;;;;6.65;77.13;98557.18;105140;1267;95558;-77
2024/03/11 11:56:04;;;;;;;30.00;15.70;;;;;;;6.67;77.16;98561.86;105135;1256;107655;-81
2024/03/11 11:58:34;;;;;;;30.40;15.50;;;;;;;6.66;77.12;98556.95;105231;1257;95352;-77
2024/03/11 12:01:04;;;;;;;28.00;15.30;;;;;;;6.66;77.41;98557.86;105456;1255;95170;-77
2024/03/11 12:03:37;;;;;;;25.90;15.10;;;;;;;6.66;77.31;98559.74;105318;1255;108523;-76
2024/03/11 12:06:17;;;;;;;25.20;15.20;;;;;;;6.67;77.29;98562.50;105214;1257;95627;-77
2024/03/11 12:08:51;;;;;;;25.90;14.80;;;;;;;6.66;77.25;98559.45;105211;1257;107725;-77
2024/03/11 12:11:19;;;;;;;27.50;14.90;;;;;;;6.63;77.35;98555.54;105343;1254;95290;-79
2024/03/11 12:13:56;;;;;;;25.30;14.20;;;;;;;6.63;77.16;98553.11;105471;1253;95802;-77
2024/03/11 12:16:24;;;;;;;29.00;14.20;;;;;;;6.63;77.30;98548.00;105399;1256;108123;-77
2024/03/11 12:19:00;;;;;;;27.40;15.60;;;;;;;6.61;77.20;98547.45;105279;1257;95509;-77
2024/03/11 12:21:29;;;;;;;25.90;15.00;;;;;;;6.60;77.33;98546.59;105408;1272;107647;-77
2024/03/11 12:23:58;;;;;;;29.30;17.20;;;;;;;6.60;77.35;98545.94;105314;1258;95264;-76
2024/03/11 12:26:29;;;;;;;28.00;15.00;;;;;;;6.58;77.34;98547.63;105230;1257;96056;-77
2024/03/11 12:29:13;;;;;;;26.90;14.70;;;;;;;6.55;77.19;98553.43;105323;1257;108087;-78
2024/03/11 12:31:41;;;;;;;24.00;14.50;;;;;;;6.54;77.25;98546.80;105398;1258;95279;-77
2024/03/11 12:34:14;;;;;;;28.80;15.90;;;;;;;6.53;77.46;98544.90;105368;1257;107619;-76
2024/03/11 12:36:46;;;;;;;;;;;;;;;6.51;77.46;98543.81;105201;1258;96593;-77
2024/03/11 12:40:02;;;;;;;28.30;14.90;;;;;;;6.48;77.30;98546.48;105404;1253;95334;-76
2024/03/11 12:42:08;;;;;;;27.00;14.80;;;;;;;6.49;77.43;98547.29;105455;1265;108598;-81
2024/03/11 12:44:36;;;;;;;28.10;15.90;;;;;;;6.51;77.61;98542.93;105449;1253;95273;-76
2024/03/11 12:47:05;;;;;;;25.90;14.90;;;;;;;6.53;77.47;98542.98;105338;1257;107586;-77
2024/03/11 12:49:33;;;;;;;29.30;16.70;;;;;;;6.58;77.37;98541.98;105319;1254;95268;-77
2024/03/11 12:52:08;;;;;;;29.10;15.80;;;;;;;6.60;77.60;98543.42;105464;1257;96045;-76
2024/03/11 12:54:37;;;;;;;25.20;13.70;;;;;;;6.61;77.69;98541.05;105269;1259;108389;-77
2024/03/11 12:57:10;;;;;;;27.50;14.30;;;;;;;6.61;77.57;98539.46;105469;1254;95465;-77
2024/03/11 12:59:43;;;;;;;28.90;16.20;;;;;;;6.62;77.58;98545.60;105535;1257;107723;-77
2024/03/11 13:02:20;;;;;;;24.00;14.10;;;;;;;6.63;77.55;98548.38;105419;1257;95158;-76
2024/03/11 13:04:52;;;;;;;26.60;14.40;;;;;;;6.64;77.58;98550.39;105355;1255;95254;-77
2024/03/11 13:07:23;;;;;;;;;;;;;;;6.65;77.44;98550.52;105433;1255;108091;-80
2024/03/11 13:09:54;;;;;;;27.30;16.10;;;;;;;6.64;77.44;98555.65;105585;1257;95244;-76
2024/03/11 13:12:28;;;;;;;25.80;14.30;;;;;;;6.65;77.60;98557.21;105281;1257;105917;-77
2024/03/11 13:14:57;;;;;;;29.20;16.00;;;;;;;6.67;77.55;98557.06;105194;1254;95344;-75
2024/03/11 13:17:32;;;;;;;29.00;15.90;;;;;;;6.69;77.51;98553.99;105331;1257;95269;-77
2024/03/11 13:20:04;;;;;;;26.20;15.30;;;;;;;6.70;77.52;98553.19;105268;1257;107253;-77
2024/03/11 13:22:31;;;;;;;28.30;14.90;;;;;;;6.72;77.54;98554.82;105251;1253;95313;-77
2024/03/11 13:25:06;;;;;;;30.30;14.90;;;;;;;6.72;77.59;98555.14;105390;1257;108595;-78
2024/03/11 13:27:34;;;;;;;26.40;15.30;;;;;;;6.75;77.45;98554.29;105469;1254;95254;-77
2024/03/11 13:30:05;;;;;;;28.80;13.90;;;;;;;6.76;77.51;98547.52;105426;1256;95229;-82
2024/03/11 13:32:35;;;;;;;30.00;15.00;;;;;;;6.77;77.55;98544.99;105126;1253;108541;-76
2024/03/11 13:35:04;;;;;;;26.70;15.00;;;;;;;6.78;77.66;98541.40;105254;1258;95487;-76
2024/03/11 13:37:33;;;;;;;30.50;16.10;;;;;;;6.80;77.51;98538.27;105379;1257;107739;-77
2024/03/11 13:40:07;;;;;;;29.00;16.10;;;;;;;6.81;77.67;98543.47;105368;1255;95197;-78
2024/03/11 13:42:36;;;;;;;26.50;15.60;;;;;;;6.83;77.70;98548.29;105402;1253;95236;-79
2024/03/11 13:45:05;;;;;;;25.80;15.20;;;;;;;6.83;77.68;98547.94;105314;1255;108578;-77
2024/03/11 13:47:33;;;;;;;28.80;16.60;;;;;;;6.85;77.67;98551.50;105339;1254;96083;-76
2024/03/11 13:50:01;;;;;;;31.50;18.20;;;;;;;6.86;77.64;98546.34;105410;1257;106110;-77
2024/03/11 13:52:29;;;;;;;29.80;15.10;;;;;;;6.88;77.72;98542.50;105138;1257;95682;-77
2024/03/11 13:54:59;;;;;;;28.40;16.10;;;;;;;6.88;77.72;98542.66;105361;1252;95267;-76
2024/03/11 13:57:27;;;;;;;27.00;15.80;;;;;;;6.90;77.78;98542.38;105624;1257;108134;-77
2024/03/11 13:59:55;;;;;;;25.80;15.30;;;;;;;6.91;77.72;98539.48;105221;1252;96134;-77
2024/03/11 14:02:24;;;;;;;26.70;15.30;;;;;;;6.92;77.75;98536.58;105200;1253;107725;-76
2024/03/11 14:04:52;;;;;;;32.30;17.70;;;;;;;6.93;77.74;98538.13;105438;1258;95174;-77
2024/03/11 14:07:20;;;;;;;33.50;17.90;;;;;;;6.93;77.54;98539.19;105320;1255;95206;-81
2024/03/11 14:09:49;;;;;;;29.20;15.20;;;;;;;6.93;77.79;98534.40;105166;1253;108646;-79
2024/03/11 14:12:22;;;;;;;33.20;16.20;;;;;;;6.94;77.68;98533.98;105266;1258;96148;-77
2024/03/11 14:14:50;;;;;;;31.40;16.60;;;;;;;6.95;77.85;98533.75;105204;1259;107482;-79
2024/03/11 14:17:20;;;;;;;27.70;15.70;;;;;;;6.95;77.91;98533.01;105829;1257;95252;-79
2024/03/11 14:20:22;;;;;;;26.00;14.80;;;;;;;6.96;77.89;98536.31;105345;1253;95185;-79
2024/03/11 14:23:11;;;;;;;26.00;14.90;;;;;;;6.95;77.78;98532.48;105490;1253;108810;-78
2024/03/11 14:25:42;;;;;;;28.10;14.80;;;;;;;6.95;77.88;98527.91;105589;1252;95356;-78
2024/03/11 14:28:12;;;;;;;28.80;15.00;;;;;;;6.96;77.83;98528.20;105392;1257;107670;-78
2024/03/11 14:30:41;;;;;;;27.20;15.80;;;;;;;6.97;77.90;98525.17;105557;1254;96066;-80
2024/03/11 14:33:09;;;;;;;23.00;13.40;;;;;;;6.97;77.99;98516.35;105340;1255;95255;-79
2024/03/11 14:35:39;;;;;;;27.50;14.10;;;;;;;6.97;77.88;98513.49;105626;1257;108564;-79
2024/03/11 14:38:08;;;;;;;31.20;16.80;;;;;;;6.97;77.70;98519.33;105390;1257;95575;-79
2024/03/11 14:40:44;;;;;;;25.90;13.80;;;;;;;6.97;77.94;98520.61;105551;1257;107541;-78
2024/03/11 14:43:14;;;;;;;26.60;15.40;;;;;;;6.96;77.88;98523.61;105385;1257;96061;-79
2024/03/11 14:45:44;;;;;;;27.50;16.60;;;;;;;6.96;77.99;98524.20;105393;1258;95191;-78
2024/03/11 14:48:13;;;;;;;22.90;12.70;;;;;;;6.95;77.90;98525.65;105638;1253;108627;-79
2024/03/11 14:50:49;;;;;;;29.80;17.20;;;;;;;6.93;77.85;98526.63;105417;1257;96622;-79
2024/03/11 14:53:18;;;;;;;33.30;19.10;;;;;;;6.91;77.91;98521.66;105317;1267;107803;-80
2024/03/11 14:55:45;;;;;;;27.40;15.00;;;;;;;6.88;77.78;98516.92;105489;1253;96554;-78
2024/03/11 14:58:20;;;;;;;23.40;14.50;;;;;;;6.88;78.02;98520.50;105343;1253;95236;-79
2024/03/11 15:00:57;;;;;;;25.40;14.90;;;;;;;6.86;77.80;98517.94;105487;1257;107161;-79
2024/03/11 15:03:26;;;;;;;28.30;15.40;;;;;;;6.85;78.02;98516.92;105623;1253;95440;-79
2024/03/11 15:05:59;;;;;;;28.80;15.40;;;;;;;6.85;77.83;98516.27;105741;1256;107684;-79
2024/03/11 15:08:31;;;;;;;27.80;15.70;;;;;;;6.85;77.90;98513.09;105417;1257;95240;-80
2024/03/11 15:11:13;;;;;;;25.60;14.70;;;;;;;6.85;78.06;98515.90;105238;1254;95270;-78
2024/03/11 15:13:42;;;;;;;27.70;14.50;;;;;;;6.84;78.00;98514.69;105252;1257;108143;-79
2024/03/11 15:16:18;;;;;;;23.90;13.20;;;;;;;6.84;77.87;98517.21;105465;1257;96223;-78
2024/03/11 15:18:47;;;;;;;23.60;13.90;;;;;;;6.82;77.80;98514.88;105363;1257;107195;-80
2024/03/11 15:21:17;;;;;;;23.10;14.50;;;;;;;6.80;78.08;98509.88;105441;1257;97006;-79
2024/03/11 15:23:49;;;;;;;27.00;15.90;;;;;;;6.79;77.95;98508.34;105354;1268;97193;-79
2024/03/11 15:26:18;;;;;;;22.80;13.60;;;;;;;6.77;77.80;98511.29;105363;1257;109930;-80
2024/03/11 15:28:46;;;;;;;26.30;15.00;;;;;;;6.75;78.01;98508.23;105440;1253;98074;-79
2024/03/11 15:31:18;;;;;;;26.70;14.40;;;;;;;6.75;78.03;98510.08;105655;1257;107756;-80
2024/03/11 15:33:53;;;;;;;27.70;15.30;;;;;;;6.73;78.07;98509.09;105354;1253;96648;-79
2024/03/11 15:36:22;;;;;;;28.80;15.90;;;;;;;6.71;78.01;98513.12;105466;1255;97428;-79
2024/03/11 15:39:32;;;;;;;28.10;16.00;;;;;;;6.68;78.04;98507.10;105418;1259;110824;-82
2024/03/11 15:42:07;;;;;;;27.00;14.40;;;;;;;6.65;78.05;98507.66;105644;1258;97806;-78
2024/03/11 15:44:37;;;;;;;29.20;16.80;;;;;;;6.63;78.15;98498.28;105171;1253;107505;-79
2024/03/11 15:47:09;;;;;;;26.40;14.40;;;;;;;6.61;78.21;98502.33;105419;1255;97059;-80
2024/03/11 15:49:41;;;;;;;25.90;15.10;;;;;;;6.58;78.05;98498.14;105242;1257;97836;-79
2024/03/11 15:52:15;;;;;;;31.10;17.70;;;;;;;6.55;78.11;98502.85;105344;1259;109902;-80
2024/03/11 15:54:47;;;;;;;27.70;16.20;;;;;;;6.53;78.04;98503.16;105229;1257;96626;-80
2024/03/11 15:57:15;;;;;;;27.90;16.60;;;;;;;6.50;78.18;98498.95;105445;1257;107153;-79
2024/03/11 15:59:43;;;;;;;29.10;17.20;;;;;;;6.47;78.03;98499.35;105667;1258;96624;-79
2024/03/11 16:02:11;;;;;;;32.00;16.60;;;;;;;6.46;78.26;98499.41;105767;1252;96508;-80
2024/03/11 16:04:41;;;;;;;28.10;15.50;;;;;;;6.45;78.15;98498.77;105691;1257;109905;-80
2024/03/11 16:07:10;;;;;;;25.30;15.40;;;;;;;6.45;78.05;98496.69;105736;1257;96591;-80
2024/03/11 16:12:27;;;;;;;29.90;16.90;;;;;;;6.43;78.17;98490.95;105591;1255;96500;-79
2024/03/11 16:14:55;;;;;;;24.90;15.00;;;;;;;6.41;78.00;98489.84;105362;1253;96502;-80
2024/03/11 16:17:23;;;;;;;25.20;14.80;;;;;;;6.42;78.15;98493.35;105532;1258;109967;-79
2024/03/11 16:19:52;;;;;;;25.90;14.50;;;;;;;6.39;78.15;98489.61;105594;1257;96753;-80
2024/03/11 16:22:20;;;;;;;28.30;14.90;;;;;;;6.39;78.17;98496.34;105535;1258;107319;-80
2024/03/11 16:24:52;;;;;;;27.90;15.40;;;;;;;6.36;78.36;98496.13;105683;1257;97136;-81
2024/03/11 16:27:20;;;;;;;25.30;15.10;;;;;;;6.35;78.11;98500.27;105257;1258;96566;-80
2024/03/11 16:29:48;;;;;;;26.30;14.60;;;;;;;6.35;78.15;98501.70;105612;1255;109522;-79
2024/03/11 16:32:17;;;;;;;26.20;14.30;;;;;;;6.33;78.13;98500.21;105579;1268;96591;-80
2024/03/11 16:34:45;;;;;;;25.10;14.50;;;;;;;6.33;78.30;98500.07;105729;1258;106765;-80
2024/03/11 16:37:13;;;;;;;22.80;13.00;;;;;;;6.33;78.25;98498.30;105423;1255;96621;-79
2024/03/11 16:39:41;;;;;;;25.00;14.40;;;;;;;6.32;78.15;98497.27;105531;1257;96505;-80
2024/03/11 16:42:12;;;;;;;23.40;13.90;;;;;;;6.31;78.23;98490.13;105207;1257;109968;-80
2024/03/11 16:44:42;;;;;;;26.60;15.70;;;;;;;6.30;78.33;98496.55;105645;1255;97806;-80
2024/03/11 16:47:13;;;;;;;;;;;;;;;6.28;78.38;98496.67;105474;1255;107696;-75
2024/03/11 16:49:41;;;;;;;22.20;12.90;;;;;;;6.27;78.40;98495.88;105805;1257;96662;-74
2024/03/11 16:52:10;;;;;;;22.30;13.20;;;;;;;6.28;78.38;98493.18;105705;1257;96585;-74
2024/03/11 16:54:38;;;;;;;26.00;13.30;;;;;;;6.26;78.42;98495.73;105363;1257;108526;-74
2024/03/11 16:57:07;;;;;;;24.40;14.20;;;;;;;6.26;78.37;98499.96;105660;1257;97928;-75
2024/03/11 16:59:35;;;;;;;25.70;13.50;;;;;;;6.27;78.44;98504.34;105570;1253;108663;-74
2024/03/11 17:02:06;;;;;;;26.60;13.40;;;;;;;6.27;78.54;98500.79;105604;1257;97258;-74
2024/03/11 17:04:34;;;;;;;25.70;14.50;;;;;;;6.28;78.56;98499.88;105453;1257;96531;-77
2024/03/11 17:07:02;;;;;;;23.80;13.60;;;;;;;6.27;78.54;98499.94;105286;1253;109504;-74
2024/03/11 17:09:31;;;;;;;26.70;14.50;;;;;;;6.26;78.41;98505.93;105442;1257;96540;-77
2024/03/11 17:11:59;;;;;;;22.00;12.60;;;;;;;6.26;78.67;98507.88;105462;1255;107083;-75
2024/03/11 17:14:27;;;;;;;23.20;13.60;;;;;;;6.27;78.36;98505.06;105479;1255;97023;-78
2024/03/11 17:16:55;;;;;;;26.40;13.50;;;;;;;6.28;78.62;98510.80;105312;1256;96598;-74
2024/03/11 17:19:23;;;;;;;22.30;12.70;;;;;;;6.28;78.55;98513.09;105369;1257;109879;-74
2024/03/11 17:21:51;;;;;;;31.90;14.70;;;;;;;6.28;78.46;98510.42;105413;1253;97892;-76
2024/03/11 17:24:19;;;;;;;25.00;14.40;;;;;;;6.28;78.59;98508.86;106412;1257;107691;-80
2024/03/11 17:26:48;;;;;;;25.00;13.90;;;;;;;6.27;78.53;98511.35;105286;1256;96605;-75
2024/03/11 17:29:17;;;;;;;25.10;13.40;;;;;;;6.26;78.46;98509.30;105450;1258;96569;-73
2024/03/11 17:31:44;;;;;;;21.90;13.20;;;;;;;6.27;78.53;98513.83;105324;1266;109614;-75
2024/03/11 17:34:18;;;;;;;25.50;13.30;;;;;;;6.27;78.41;98511.19;105390;1257;96679;-77
2024/03/11 17:36:46;;;;;;;24.60;14.30;;;;;;;6.26;78.56;98508.96;105468;1258;105720;-76
2024/03/11 17:39:15;;;;;;;23.40;14.20;;;;;;;6.25;78.50;98509.89;105630;1253;96698;-78
2024/03/11 17:41:43;;;;;;;23.70;13.60;;;;;;;6.26;78.62;98507.03;105487;1257;96547;-74
2024/03/11 17:44:12;;;;;;;24.30;13.70;;;;;;;6.26;78.61;98506.67;105340;1258;109390;-74
2024/03/11 17:46:42;;;;;;;22.40;12.60;;;;;;;6.26;78.44;98506.69;105480;1258;96564;-75
2024/03/11 17:49:11;;;;;;;26.20;14.20;;;;;;;6.26;78.65;98505.08;105394;1258;106405;-75
2024/03/11 17:51:40;;;;;;;28.90;15.00;;;;;;;6.25;78.65;98503.54;105488;1268;96610;-78
2024/03/11 17:54:08;;;;;;;26.90;14.20;;;;;;;6.24;78.49;98508.38;105473;1257;96590;-73
2024/03/11 17:56:35;;;;;;;23.50;14.00;;;;;;;6.24;78.74;98508.17;105308;1256;109587;-74
2024/03/11 17:59:03;;;;;;;21.90;13.80;;;;;;;6.24;78.64;98506.43;105205;1257;96766;-74
2024/03/11 18:01:31;;;;;;;24.30;12.20;;;;;;;6.24;78.72;98511.19;105331;1253;107580;-71
2024/03/11 18:03:59;;;;;;;22.50;12.10;;;;;;;6.23;78.77;98509.45;105363;1257;96600;-77
2024/03/11 18:06:28;;;;;;;20.30;11.60;;;;;;;6.23;78.78;98509.64;105262;1253;96531;-75
2024/03/11 18:08:57;;;;;;;23.90;13.40;;;;;;;6.23;78.75;98513.52;105428;1256;109370;-76
2024/03/11 18:11:25;;;;;;;21.70;12.90;;;;;;;6.22;78.68;98510.23;105619;1257;96814;-75
2024/03/11 18:13:55;;;;;;;26.00;13.70;;;;;;;6.22;78.67;98505.31;105588;1257;105520;-76
2024/03/11 18:16:24;;;;;;;23.20;11.80;;;;;;;6.23;78.85;98504.23;105581;1256;97560;-76
2024/03/11 18:18:53;;;;;;;22.10;12.40;;;;;;;6.22;78.78;98511.49;105680;1258;96622;-76
2024/03/11 18:21:21;;;;;;;19.70;11.70;;;;;;;6.21;78.71;98518.23;105692;1253;109909;-81
2024/03/11 18:23:49;;;;;;;22.30;11.80;;;;;;;6.22;78.81;98529.63;105415;1254;96594;-76
2024/03/11 18:26:17;;;;;;;17.90;10.60;;;;;;;6.22;78.97;98530.86;105467;1268;107682;-77
2024/03/11 18:28:45;;;;;;;23.60;11.70;;;;;;;6.23;78.74;98519.53;105361;1255;96649;-76
2024/03/11 18:31:14;;;;;;;22.20;11.20;;;;;;;6.24;78.78;98514.01;105295;1255;96515;-80
2024/03/11 18:33:43;;;;;;;23.00;13.10;;;;;;;6.24;78.73;98510.83;105431;1256;109796;-76
2024/03/11 18:36:12;;;;;;;19.80;11.30;;;;;;;6.22;78.87;98511.81;105283;1256;97809;-78
2024/03/11 18:38:40;;;;;;;20.60;11.10;;;;;;;6.22;78.88;98513.93;105612;1259;108172;-76
2024/03/11 18:41:07;;;;;;;21.90;11.00;;;;;;;6.23;78.85;98510.91;105426;1258;96648;-78
2024/03/11 18:43:37;;;;;;;21.40;11.90;;;;;;;6.23;78.94;98509.68;105114;1254;96745;-76
2024/03/11 18:46:05;;;;;;;22.00;12.40;;;;;;;6.22;78.90;98509.91;105129;1258;110457;-76
2024/03/11 18:48:33;;;;;;;19.70;11.30;;;;;;;6.21;78.90;98508.35;105446;1256;96598;-79
2024/03/11 18:51:03;;;;;;;20.30;11.80;;;;;;;6.20;79.03;98497.85;105286;1258;106738;-80
2024/03/11 18:53:34;;;;;;;21.90;12.10;;;;;;;6.21;78.93;98504.53;105280;1257;96709;-78
2024/03/11 18:56:02;;;;;;;21.70;11.90;;;;;;;6.21;78.86;98497.11;105361;1253;96547;-76
2024/03/11 18:58:30;;;;;;;21.40;11.60;;;;;;;6.21;79.07;98494.85;105217;1269;110101;-76
2024/03/11 19:01:00;;;;;;;21.60;11.50;;;;;;;6.20;79.11;98490.30;105233;1253;96611;-76
2024/03/11 19:03:30;;;;;;;19.60;11.10;;;;;;;6.21;79.05;98489.88;105572;1264;107731;-76
2024/03/11 19:05:59;;;;;;;17.20;10.80;;;;;;;6.20;78.91;98494.02;105423;1253;96754;-75
2024/03/11 19:08:27;;;;;;;21.50;12.70;;;;;;;6.19;79.14;98485.08;105516;1257;96633;-75
2024/03/11 19:10:55;;;;;;;22.10;11.80;;;;;;;6.19;78.94;98487.06;105451;1253;109911;-80
2024/03/11 19:13:23;;;;;;;20.20;11.50;;;;;;;6.18;78.97;98490.83;105370;1259;96571;-74
2024/03/11 19:15:51;;;;;;;23.20;12.50;;;;;;;6.17;79.02;98491.41;105444;1257;105856;-77
2024/03/11 19:18:19;;;;;;;21.70;12.20;;;;;;;6.17;78.92;98491.04;105470;1268;96610;-76
2024/03/11 19:20:51;;;;;;;23.20;12.30;;;;;;;6.17;79.09;98495.29;105443;1257;97817;-74
2024/03/11 19:23:19;;;;;;;21.50;11.90;;;;;;;6.17;79.11;98497.39;105450;1253;109501;-75
2024/03/11 19:25:48;;;;;;;21.40;11.60;;;;;;;6.17;79.10;98497.35;105637;1259;96476;-75
2024/03/11 19:28:16;;;;;;;22.80;11.90;;;;;;;6.18;79.12;98492.75;105369;1269;107072;-75
2024/03/11 19:30:44;;;;;;;29.10;11.60;;;;;;;6.18;79.12;98494.27;105399;1258;96630;-75
2024/03/11 19:33:12;;;;;;;22.90;12.10;;;;;;;6.20;79.13;98493.69;105495;1256;96595;-76
2024/03/11 19:35:40;;;;;;;21.90;11.90;;;;;;;6.19;79.14;98494.79;105385;1256;108437;-73
2024/03/11 19:38:15;;;;;;;24.60;13.40;;;;;;;6.18;79.06;98500.11;105461;1253;96678;-73
2024/03/11 19:40:46;;;;;;;24.90;12.50;;;;;;;6.19;79.20;98497.07;105393;1258;107584;-71
2024/03/11 19:43:28;;;;;;;22.60;11.80;;;;;;;6.19;79.25;98491.79;105252;1258;97885;-74
2024/03/11 19:46:28;;;;;;;24.00;12.60;;;;;;;6.18;79.36;98490.77;105208;1256;96550;-74
2024/03/11 19:49:21;;;;;;;24.60;12.60;;;;;;;6.19;79.17;98496.34;105752;1256;109694;-82
2024/03/11 19:52:12;;;;;;;27.20;14.30;;;;;;;6.17;79.14;98492.80;105692;1257;97252;-74
2024/03/11 19:55:11;;;;;;;22.70;11.80;;;;;;;6.17;79.07;98496.66;105592;1259;106467;-76
2024/03/11 19:58:15;;;;;;;21.30;11.50;;;;;;;6.17;79.25;98494.90;105351;1253;96738;-75
2024/03/11 20:01:11;;;;;;;24.20;13.50;;;;;;;6.17;79.18;98499.83;105297;1258;97912;-75
2024/03/11 20:03:55;;;;;;;22.80;12.80;;;;;;;6.17;79.29;98499.64;105357;1265;109949;-74
2024/03/11 20:06:42;;;;;;;20.60;10.30;;;;;;;6.18;79.35;98501.91;105368;1253;96706;-76
2024/03/11 20:09:35;;;;;;;25.30;11.50;;;;;;;6.17;79.28;98499.98;105369;1259;108266;-75
2024/03/11 20:12:38;;;;;;;25.40;12.50;;;;;;;6.17;79.44;98496.48;105344;1259;96722;-74
2024/03/11 20:15:28;;;;;;;25.80;13.10;;;;;;;6.16;79.46;98494.77;105189;1253;96606;-74
2024/03/11 20:18:35;;;;;;;26.10;13.90;;;;;;;6.17;79.39;98492.45;105616;1255;110578;-74
2024/03/11 20:21:43;;;;;;;25.50;12.80;;;;;;;6.17;79.53;98495.95;105695;1253;96615;-75
2024/03/11 20:24:59;;;;;;;23.90;13.10;;;;;;;6.16;79.36;98498.13;105222;1256;106281;-74
2024/03/11 20:27:46;;;;;;;23.20;11.60;;;;;;;6.17;79.48;98493.70;105762;1260;96626;-79
2024/03/11 20:30:17;;;;;;;22.20;11.30;;;;;;;6.17;79.66;98490.67;105398;1256;97494;-75
2024/03/11 20:32:51;;;;;;;23.20;13.00;;;;;;;6.19;79.51;98495.34;105464;1253;110410;-75
2024/03/11 20:35:21;;;;;;;23.00;12.30;;;;;;;6.19;79.54;98496.35;105722;1257;96601;-76
2024/03/11 20:37:49;;;;;;;22.70;12.30;;;;;;;6.20;79.60;98497.38;105404;1257;107259;-74
2024/03/11 20:40:17;;;;;;;22.00;10.50;;;;;;;6.20;79.57;98495.39;105688;1258;96604;-74
2024/03/11 20:42:45;;;;;;;28.00;13.50;;;;;;;6.21;79.57;98498.50;105678;1259;96598;-75
2024/03/11 20:45:14;;;;;;;22.00;11.60;;;;;;;6.22;79.66;98498.13;105493;1253;109912;-74
2024/03/11 20:47:42;;;;;;;23.90;13.80;;;;;;;6.21;79.50;98498.86;105518;1257;96620;-79
2024/03/11 20:50:10;;;;;;;23.60;12.10;;;;;;;6.21;79.55;98495.20;105517;1253;106017;-74
2024/03/11 20:52:38;;;;;;;22.30;12.50;;;;;;;6.22;79.58;98494.41;106901;1256;96599;-75
2024/03/11 20:55:10;;;;;;;23.60;13.00;;;;;;;6.22;79.77;98490.17;105625;1256;96515;-76
2024/03/11 20:57:39;;;;;;;24.90;13.20;;;;;;;6.24;79.60;98485.86;105658;1257;109350;-75
2024/03/11 21:00:18;;;;;;;24.30;13.00;;;;;;;6.24;79.63;98481.23;105689;1258;96590;-79
2024/03/11 21:02:49;;;;;;;26.80;13.10;;;;;;;6.24;79.82;98482.63;106086;1257;107788;-75
2024/03/11 21:05:18;;;;;;;28.30;13.90;;;;;;;6.25;79.74;98480.68;105575;1268;96621;-76
2024/03/11 21:07:46;;;;;;;26.60;13.10;;;;;;;6.24;79.74;98482.14;108292;1252;95039;-74
2024/03/11 21:10:14;;;;;;;25.30;13.40;;;;;;;6.25;79.85;98484.00;105653;1256;110319;-75
2024/03/11 21:12:42;;;;;;;25.00;13.20;;;;;;;6.27;79.77;98485.81;105332;1258;96585;-75
2024/03/11 21:15:10;;;;;;;25.20;13.70;;;;;;;6.29;79.80;98489.95;105468;1258;107121;-75
2024/03/11 21:17:41;;;;;;;22.80;12.80;;;;;;;6.29;79.56;98485.51;105189;1256;96665;-74
2024/03/11 21:20:44;;;;;;;22.00;11.50;;;;;;;6.30;79.69;98491.78;105639;1258;96491;-73
2024/03/11 21:23:24;;;;;;;22.30;11.00;;;;;;;6.30;79.73;98491.14;105247;1258;110046;-75
2024/03/11 21:28:21;;;;;;;26.30;12.70;;;;;;;6.31;79.89;98491.93;105642;1256;107630;-75
2024/03/11 21:30:53;;;;;;;26.10;13.80;;;;;;;6.30;79.84;98491.81;105571;1258;96588;-73
2024/03/11 21:33:27;;;;;;;25.90;13.40;;;;;;;6.29;79.71;98490.08;105573;1258;97515;-80
2024/03/11 21:35:56;;;;;;;27.40;14.40;;;;;;;6.28;79.81;98485.40;105408;1256;109005;-78
2024/03/11 21:38:23;;;;;;;23.40;12.80;;;;;;;6.28;79.73;98484.17;105444;1256;96598;-75
2024/03/11 21:40:57;;;;;;;21.10;11.90;;;;;;;6.30;79.94;98480.90;105521;1258;106238;-74
2024/03/11 21:43:25;;;;;;;21.90;11.20;;;;;;;6.30;79.84;98478.23;105378;1257;97931;-73
2024/03/11 21:45:53;;;;;;;22.00;12.10;;;;;;;6.30;79.85;98475.06;105372;1257;97411;-74
2024/03/11 21:48:21;;;;;;;24.50;13.00;;;;;;;6.30;79.89;98475.60;105538;1257;109414;-81
2024/03/11 21:50:49;;;;;;;22.10;11.80;;;;;;;6.30;79.97;98477.21;105538;1259;97944;-75
2024/03/11 21:53:17;;;;;;;24.50;12.90;;;;;;;6.30;79.94;98475.79;105093;1253;107406;-74
2024/03/11 21:55:47;;;;;;;22.10;11.60;;;;;;;6.31;79.83;98482.45;105344;1259;96608;-75
2024/03/11 21:58:18;;;;;;;21.80;11.80;;;;;;;6.30;79.88;98479.13;105354;1256;96592;-75
2024/03/11 22:00:47;;;;;;;21.70;11.90;;;;;;;6.30;80.01;98481.27;105375;1253;109651;-75
2024/03/11 22:03:18;;;;;;;22.10;12.20;;;;;;;6.30;79.93;98482.80;105517;1258;96510;-76
2024/03/11 22:05:46;;;;;;;24.90;12.70;;;;;;;6.30;79.93;98479.11;105487;1267;107681;-75
2024/03/11 22:08:14;;;;;;;22.30;11.90;;;;;;;6.30;79.96;98475.79;105273;1276;96601;-75
2024/03/11 22:10:42;;;;;;;23.70;11.60;;;;;;;6.29;80.07;98475.30;105255;1258;96586;-75
2024/03/11 22:13:10;;;;;;;23.20;10.90;;;;;;;6.29;80.07;98469.89;105286;1254;109959;-74
2024/03/11 22:15:38;;;;;;;22.70;11.60;;;;;;;6.29;80.21;98476.38;105096;1256;97262;-75
2024/03/11 22:18:07;;;;;;;23.50;11.80;;;;;;;6.28;80.06;98474.67;105418;1258;107637;-76
2024/03/11 22:20:36;;;;;;;20.30;10.90;;;;;;;6.28;80.11;98472.72;105490;1259;96616;-74
2024/03/11 22:23:04;;;;;;;26.10;12.10;;;;;;;6.30;80.02;98465.25;105517;1256;96621;-75
2024/03/11 22:25:32;;;;;;;20.90;10.70;;;;;;;6.30;79.96;98463.27;105647;1259;109359;-77
2024/03/11 22:28:02;;;;;;;22.10;12.20;;;;;;;6.30;80.10;98460.62;105260;1253;97819;-74
2024/03/11 22:30:30;;;;;;;21.80;11.00;;;;;;;6.29;80.05;98455.95;105368;1253;107161;-76
2024/03/11 22:32:58;;;;;;;19.00;11.00;;;;;;;6.29;79.94;98459.84;105375;1267;96615;-76
2024/03/11 22:35:27;;;;;;;20.90;11.50;;;;;;;6.29;80.01;98459.13;105454;1260;96664;-74
2024/03/11 22:37:57;;;;;;;19.60;11.10;;;;;;;6.29;79.91;98462.63;105414;1259;109004;-76
2024/03/11 22:40:25;;;;;;;18.80;9.80;;;;;;;6.29;80.07;98458.21;105434;1258;97283;-76
2024/03/11 22:42:54;;;;;;;18.80;10.10;;;;;;;6.29;80.01;98460.02;105294;1260;106613;-75
2024/03/11 22:45:22;;;;;;;15.50;9.00;;;;;;;6.28;79.97;98462.70;105568;1260;96662;-75